Time;durP1;ratioP1;P1;durP2;ratioP2;P2;SDS_P1;SDS_P2;PMS_P1;PMS_P2;Temp;Humidity;BMP_temperature;BMP_pressure;BME280_temperature;BME280_humidity;BME280_pressure;Samples;Min_cycle;Max_cycle;Signal;HPM_P1;HPM_P2
2023/07/02 00:01:21;;;;;;;6.60;1.40;;;;;;;17.79;100.00;99840.03;5019301;28;20465;-76
2023/07/02 00:03:47;;;;;;;6.00;1.60;;;;;;;17.78;100.00;99838.44;5019087;28;20482;-75
2023/07/02 00:06:17;;;;;;;5.10;1.33;;;;;;;17.81;100.00;99843.19;5019049;28;21006;-76
2023/07/02 00:08:44;;;;;;;5.00;1.37;;;;;;;17.88;100.00;99846.06;5015982;28;20840;-76
2023/07/02 00:11:12;;;;;;;5.27;1.53;;;;;;;17.94;100.00;99848.47;5016185;28;20483;-76
2023/07/02 00:13:39;;;;;;;5.73;1.53;;;;;;;17.89;100.00;99853.09;5015879;28;20543;-75
2023/07/02 00:16:05;;;;;;;5.90;1.80;;;;;;;17.81;100.00;99845.94;5016006;28;20574;-75
2023/07/02 00:18:33;;;;;;;6.47;1.70;;;;;;;17.80;100.00;99844.34;5015998;28;20547;-76
2023/07/02 00:21:02;;;;;;;6.47;1.70;;;;;;;17.78;100.00;99852.13;5015980;28;20448;-75
2023/07/02 00:23:30;;;;;;;6.40;1.97;;;;;;;17.81;100.00;99851.41;5015679;28;20860;-75
2023/07/02 00:25:57;;;;;;;6.07;2.10;;;;;;;17.77;100.00;99853.31;5015867;28;20443;-75
2023/07/02 00:28:24;;;;;;;6.07;2.13;;;;;;;17.75;100.00;99852.91;5015332;28;20480;-76
2023/07/02 00:30:50;;;;;;;10.80;1.77;;;;;;;17.75;100.00;99855.63;5016112;28;20452;-74
2023/07/02 00:33:17;;;;;;;6.07;2.07;;;;;;;17.68;100.00;99850.00;5015918;28;20475;-76
2023/07/02 00:35:43;;;;;;;6.17;2.03;;;;;;;17.67;100.00;99856.66;5016098;28;20450;-77
2023/07/02 00:38:10;;;;;;;6.47;2.40;;;;;;;17.64;100.00;99857.38;5015907;28;20470;-76
2023/07/02 00:40:38;;;;;;;6.23;1.77;;;;;;;17.67;100.00;99862.13;5015677;28;20452;-76
2023/07/02 00:43:05;;;;;;;8.63;1.90;;;;;;;17.71;100.00;99871.19;5015567;28;20455;-75
2023/07/02 00:45:31;;;;;;;5.60;1.63;;;;;;;17.64;100.00;99871.06;5015243;28;20958;-76
2023/07/02 00:47:58;;;;;;;7.30;2.53;;;;;;;17.65;100.00;99867.16;5015098;28;20854;-76
2023/07/02 00:50:26;;;;;;;6.17;2.07;;;;;;;17.70;100.00;99877.00;5015086;28;20448;-76
2023/07/02 00:52:53;;;;;;;6.40;2.13;;;;;;;17.68;100.00;99871.91;5015070;28;20452;-76
2023/07/02 00:55:20;;;;;;;7.07;1.87;;;;;;;17.71;100.00;99870.38;5015337;28;20451;-76
2023/07/02 00:57:48;;;;;;;7.80;2.40;;;;;;;17.67;100.00;99875.81;5015181;28;20487;-75
2023/07/02 01:00:16;;;;;;;6.13;1.93;;;;;;;17.63;100.00;99872.22;5015208;28;20546;-76
2023/07/02 01:02:44;;;;;;;9.03;3.00;;;;;;;17.66;100.00;99871.47;5015113;28;20450;-75
2023/07/02 01:05:14;;;;;;;7.27;2.47;;;;;;;17.63;100.00;99866.75;5015149;28;20939;-76
2023/07/02 01:07:41;;;;;;;7.83;2.77;;;;;;;17.64;100.00;99865.59;5015087;28;20522;-76
2023/07/02 01:10:08;;;;;;;8.20;2.67;;;;;;;17.61;100.00;99867.09;5014769;28;20531;-76
2023/07/02 01:12:37;;;;;;;7.60;2.53;;;;;;;17.58;100.00;99878.81;5014727;28;21005;-75
2023/07/02 01:15:07;;;;;;;8.60;3.70;;;;;;;17.56;100.00;99875.63;5014953;28;20479;-76
2023/07/02 01:17:41;;;;;;;7.93;3.43;;;;;;;17.55;100.00;99873.25;5014852;28;20567;-76
2023/07/02 01:20:11;;;;;;;8.00;3.33;;;;;;;17.57;100.00;99879.94;5014634;28;20432;-76
2023/07/02 01:22:38;;;;;;;8.17;2.90;;;;;;;17.55;100.00;99871.31;5014788;28;20447;-76
2023/07/02 01:25:08;;;;;;;10.03;3.47;;;;;;;17.56;100.00;99881.09;5014770;28;20450;-76
2023/07/02 01:27:35;;;;;;;8.83;3.40;;;;;;;17.59;100.00;99874.13;5014691;28;20452;-76
2023/07/02 01:30:02;;;;;;;7.57;3.23;;;;;;;17.55;100.00;99878.72;5014335;28;20491;-76
2023/07/02 01:32:29;;;;;;;8.87;3.67;;;;;;;17.56;100.00;99874.84;5014738;28;20473;-76
2023/07/02 01:34:56;;;;;;;8.73;3.70;;;;;;;17.59;100.00;99869.41;5014634;28;20530;-75
2023/07/02 01:37:24;;;;;;;7.20;3.00;;;;;;;17.52;100.00;99879.47;5014268;28;20490;-76
2023/07/02 01:39:50;;;;;;;9.67;3.33;;;;;;;17.52;100.00;99880.25;5014445;28;20460;-76
2023/07/02 01:42:18;;;;;;;8.10;3.53;;;;;;;17.54;100.00;99877.16;5014491;28;20475;-75
2023/07/02 01:44:47;;;;;;;8.43;3.70;;;;;;;17.55;100.00;99889.69;5014086;28;21014;-75
2023/07/02 01:47:15;;;;;;;10.13;4.90;;;;;;;17.50;100.00;99890.00;5014260;28;20440;-75
2023/07/02 01:49:42;;;;;;;8.43;4.07;;;;;;;17.52;100.00;99885.72;5014347;28;20472;-76
2023/07/02 01:52:08;;;;;;;9.27;4.03;;;;;;;17.49;100.00;99885.69;5014010;28;20543;-75
2023/07/02 01:54:36;;;;;;;9.37;4.20;;;;;;;17.46;100.00;99889.13;5013991;28;20943;-76
2023/07/02 01:57:04;;;;;;;9.30;4.03;;;;;;;17.40;100.00;99878.50;5013833;28;20579;-75
2023/07/02 01:59:30;;;;;;;7.60;3.80;;;;;;;17.46;100.00;99891.88;5013819;28;20974;-76
2023/07/02 02:01:57;;;;;;;8.60;4.27;;;;;;;17.40;100.00;99894.91;5013879;28;21006;-76
2023/07/02 02:04:23;;;;;;;10.43;4.50;;;;;;;17.39;100.00;99893.31;5014130;28;20496;-75
2023/07/02 02:06:51;;;;;;;11.77;4.70;;;;;;;17.32;100.00;99893.22;5013882;28;20859;-76
2023/07/02 02:09:18;;;;;;;9.50;4.40;;;;;;;17.26;100.00;99897.38;5013955;28;20518;-76
2023/07/02 02:11:49;;;;;;;9.40;3.77;;;;;;;17.22;100.00;99893.81;5013915;28;20454;-75
2023/07/02 02:14:16;;;;;;;11.80;4.67;;;;;;;17.15;100.00;99897.19;5013993;28;20452;-76
2023/07/02 02:16:45;;;;;;;9.00;4.03;;;;;;;17.15;100.00;99894.44;5013897;28;20520;-76
2023/07/02 02:19:12;;;;;;;12.70;4.87;;;;;;;17.22;100.00;99888.34;5013836;28;20464;-76
2023/07/02 02:21:39;;;;;;;9.33;4.40;;;;;;;17.14;100.00;99895.63;5013773;28;20455;-76
2023/07/02 02:24:07;;;;;;;10.20;4.50;;;;;;;17.13;100.00;99890.47;5013817;28;20444;-76
2023/07/02 02:26:33;;;;;;;9.47;4.53;;;;;;;17.08;100.00;99894.31;5013497;28;20440;-76
2023/07/02 02:29:01;;;;;;;9.70;4.20;;;;;;;17.12;100.00;99902.59;5013322;28;20515;-76
2023/07/02 02:31:29;;;;;;;8.37;3.77;;;;;;;17.09;100.00;99900.59;5012727;28;20816;-76
2023/07/02 02:33:56;;;;;;;8.90;4.10;;;;;;;17.09;100.00;99897.84;5013673;28;20494;-76
2023/07/02 02:36:22;;;;;;;10.33;4.50;;;;;;;17.12;100.00;99905.31;5013548;28;20454;-76
2023/07/02 02:38:49;;;;;;;7.63;3.17;;;;;;;17.07;100.00;99897.41;5013589;28;20499;-76
2023/07/02 02:41:16;;;;;;;9.40;3.90;;;;;;;17.02;100.00;99905.91;5013319;28;20938;-76
2023/07/02 02:43:43;;;;;;;10.23;4.40;;;;;;;17.02;100.00;99900.44;5013429;28;20554;-76
2023/07/02 02:46:12;;;;;;;14.60;3.80;;;;;;;17.04;100.00;99909.06;5013512;28;20444;-76
2023/07/02 02:48:39;;;;;;;9.70;3.67;;;;;;;17.01;100.00;99907.09;5013311;28;20548;-75
2023/07/02 02:51:05;;;;;;;9.97;3.87;;;;;;;16.99;100.00;99901.94;5013112;28;20446;-76
2023/07/02 02:53:32;;;;;;;8.70;3.70;;;;;;;16.98;100.00;99913.25;5013223;28;20835;-76
2023/07/02 02:55:58;;;;;;;8.17;3.53;;;;;;;16.93;100.00;99902.63;5013327;28;20454;-75
2023/07/02 02:58:27;;;;;;;12.83;3.00;;;;;;;16.94;100.00;99915.13;5013173;28;20491;-75
2023/07/02 03:00:54;;;;;;;8.53;3.53;;;;;;;16.89;100.00;99914.28;5013357;28;20448;-75
2023/07/02 03:03:24;;;;;;;8.90;4.00;;;;;;;16.90;100.00;99902.16;5013301;28;20494;-75
2023/07/02 03:05:50;;;;;;;8.07;3.40;;;;;;;16.89;100.00;99908.00;5012944;28;20450;-75
2023/07/02 03:08:17;;;;;;;6.87;2.67;;;;;;;16.89;100.00;99911.53;5012826;28;21073;-75
2023/07/02 03:10:44;;;;;;;7.87;3.17;;;;;;;16.94;100.00;99915.91;5013259;28;20475;-75
2023/07/02 03:13:10;;;;;;;8.87;3.50;;;;;;;16.90;100.00;99918.56;5012904;28;20475;-75
2023/07/02 03:15:37;;;;;;;8.83;4.00;;;;;;;16.94;100.00;99920.59;5013224;28;20443;-74
2023/07/02 03:18:04;;;;;;;7.63;2.90;;;;;;;16.94;100.00;99924.13;5013103;28;20574;-74
2023/07/02 03:20:32;;;;;;;6.90;3.07;;;;;;;16.94;100.00;99915.91;5013153;28;20444;-75
2023/07/02 03:22:58;;;;;;;12.00;4.60;;;;;;;16.98;100.00;99921.47;5012873;28;20487;-75
2023/07/02 03:25:25;;;;;;;8.47;2.70;;;;;;;16.99;100.00;99923.84;5013025;28;20450;-74
2023/07/02 03:27:51;;;;;;;11.30;3.70;;;;;;;17.04;100.00;99917.28;5012838;28;20484;-75
2023/07/02 03:30:18;;;;;;;8.20;3.13;;;;;;;17.04;100.00;99925.50;5013148;28;20434;-74
2023/07/02 03:32:45;;;;;;;9.33;3.30;;;;;;;17.05;100.00;99921.63;5013075;28;20539;-74
2023/07/02 03:35:11;;;;;;;9.27;3.90;;;;;;;17.02;100.00;99927.81;5013030;28;20452;-74
2023/07/02 03:37:41;;;;;;;9.90;3.87;;;;;;;17.03;100.00;99923.91;5012967;28;20490;-74
2023/07/02 03:40:09;;;;;;;9.60;3.90;;;;;;;17.01;100.00;99928.97;5012760;28;20896;-74
2023/07/02 03:42:36;;;;;;;7.07;3.00;;;;;;;17.00;100.00;99930.91;5013164;28;20479;-74
2023/07/02 03:45:03;;;;;;;10.00;4.00;;;;;;;16.97;100.00;99931.63;5016470;28;20942;-74
2023/07/02 03:47:30;;;;;;;9.00;4.20;;;;;;;16.97;100.00;99937.09;5016382;28;20948;-74
2023/07/02 03:49:56;;;;;;;8.67;3.67;;;;;;;17.04;100.00;99936.44;5017465;28;20495;-74
2023/07/02 03:52:23;;;;;;;7.70;3.10;;;;;;;17.03;100.00;99935.66;5016526;28;20456;-74
2023/07/02 03:54:51;;;;;;;9.77;3.10;;;;;;;17.03;100.00;99937.59;5016716;28;20455;-74
2023/07/02 03:57:17;;;;;;;7.30;3.07;;;;;;;17.03;100.00;99945.81;5016113;28;21002;-74
2023/07/02 03:59:44;;;;;;;8.80;3.17;;;;;;;17.04;100.00;99955.59;5016370;28;20466;-74
2023/07/02 04:02:11;;;;;;;9.40;3.40;;;;;;;17.01;100.00;99953.59;5015965;28;20476;-75
2023/07/02 04:04:37;;;;;;;6.47;2.20;;;;;;;17.02;100.00;99950.50;5016355;28;20867;-73
2023/07/02 04:07:04;;;;;;;9.83;3.13;;;;;;;16.98;100.00;99948.84;5015996;28;20972;-73
2023/07/02 04:09:32;;;;;;;7.33;3.03;;;;;;;17.00;100.00;99941.03;5016207;28;20927;-73
2023/07/02 04:12:00;;;;;;;7.00;2.97;;;;;;;16.94;100.00;99942.50;5016254;28;20444;-73
2023/07/02 04:14:27;;;;;;;7.53;2.80;;;;;;;16.95;100.00;99946.81;5016197;28;20443;-74
2023/07/02 04:16:53;;;;;;;7.93;2.30;;;;;;;16.92;100.00;99944.81;5016083;28;20531;-73
2023/07/02 04:19:20;;;;;;;7.23;2.87;;;;;;;16.92;100.00;99942.06;5015926;28;20482;-75
2023/07/02 04:21:47;;;;;;;8.43;3.23;;;;;;;16.96;100.00;99943.72;5016030;28;20519;-74
2023/07/02 04:24:13;;;;;;;18.73;3.37;;;;;;;16.98;100.00;99943.34;5015963;28;20470;-74
2023/07/02 04:26:42;;;;;;;9.80;3.03;;;;;;;17.02;100.00;99955.97;5015856;28;20444;-75
2023/07/02 04:29:10;;;;;;;11.67;2.73;;;;;;;17.03;100.00;99956.75;5015479;28;20487;-75
2023/07/02 04:31:37;;;;;;;7.37;2.60;;;;;;;17.11;100.00;99958.47;5015774;28;20450;-75
2023/07/02 04:34:04;;;;;;;8.80;3.53;;;;;;;17.06;100.00;99961.50;5015433;28;20543;-75
2023/07/02 04:36:31;;;;;;;6.83;2.50;;;;;;;17.09;100.00;99960.81;5015676;28;20459;-73
2023/07/02 04:38:58;;;;;;;8.13;2.77;;;;;;;17.14;100.00;99963.25;5015230;28;20865;-73
2023/07/02 04:41:24;;;;;;;7.37;2.63;;;;;;;17.15;100.00;99970.28;5015316;28;20491;-73
2023/07/02 04:43:51;;;;;;;7.50;3.40;;;;;;;17.24;100.00;99978.28;5015263;28;20819;-73
2023/07/02 04:46:19;;;;;;;6.37;2.60;;;;;;;17.23;100.00;99976.72;5015528;28;20526;-73
2023/07/02 04:48:46;;;;;;;6.20;2.20;;;;;;;17.27;100.00;99983.06;5015423;28;20460;-73
2023/07/02 04:51:12;;;;;;;9.10;4.00;;;;;;;17.29;100.00;99984.25;5015153;28;20474;-74
2023/07/02 04:53:39;;;;;;;8.83;3.50;;;;;;;17.38;100.00;99984.03;5015075;28;20443;-74
2023/07/02 04:56:06;;;;;;;6.53;2.30;;;;;;;17.39;100.00;99985.63;5014700;28;20482;-73
2023/07/02 04:58:33;;;;;;;9.23;3.40;;;;;;;17.47;100.00;99992.03;5014834;28;20908;-73
2023/07/02 05:00:59;;;;;;;7.53;2.60;;;;;;;17.45;100.00;99984.19;5015297;28;20444;-73
2023/07/02 05:03:27;;;;;;;7.83;3.03;;;;;;;17.50;100.00;99983.09;5015203;28;20882;-73
2023/07/02 05:05:54;;;;;;;6.67;2.73;;;;;;;17.46;100.00;99982.25;5015123;28;20470;-73
2023/07/02 05:08:21;;;;;;;6.87;2.63;;;;;;;17.47;100.00;99983.81;5014785;28;20495;-76
2023/07/02 05:10:47;;;;;;;7.20;2.73;;;;;;;17.49;100.00;99989.75;5015054;28;20475;-69
2023/07/02 05:13:14;;;;;;;6.53;2.30;;;;;;;17.53;100.00;100001.53;5014690;28;20810;-70
2023/07/02 05:15:40;;;;;;;7.30;2.50;;;;;;;17.51;100.00;99999.16;5014955;28;20479;-69
2023/07/02 05:18:07;;;;;;;7.30;2.67;;;;;;;17.51;100.00;99981.94;5014787;28;20519;-70
2023/07/02 05:20:35;;;;;;;7.97;2.77;;;;;;;17.56;100.00;99984.38;5014887;28;20444;-74
2023/07/02 05:23:02;;;;;;;7.57;2.43;;;;;;;17.64;100.00;100002.53;5014925;28;20535;-74
2023/07/02 05:25:28;;;;;;;7.33;2.40;;;;;;;17.66;100.00;99989.25;5014903;28;20546;-74
2023/07/02 05:27:55;;;;;;;8.00;2.90;;;;;;;17.68;100.00;100008.09;5014634;28;20468;-73
2023/07/02 05:30:21;;;;;;;8.83;2.43;;;;;;;17.68;100.00;100003.41;5014780;28;20429;-73
2023/07/02 05:32:48;;;;;;;12.30;2.97;;;;;;;17.56;100.00;100001.59;5014683;28;20444;-73
2023/07/02 05:35:15;;;;;;;8.57;2.50;;;;;;;17.57;100.00;99991.44;5014582;28;20450;-72
2023/07/02 05:37:43;;;;;;;5.57;1.80;;;;;;;17.62;100.00;99994.69;5014463;28;20574;-73
2023/07/02 05:40:10;;;;;;;8.37;3.07;;;;;;;17.58;100.00;99999.31;5014500;28;20445;-72
2023/07/02 05:42:37;;;;;;;8.60;2.17;;;;;;;17.63;100.00;99990.00;5014484;28;20446;-73
2023/07/02 05:45:04;;;;;;;5.80;1.80;;;;;;;17.71;100.00;100005.41;5014464;28;20448;-73
2023/07/02 05:47:31;;;;;;;5.87;1.83;;;;;;;17.84;100.00;99997.81;5014407;28;20535;-73
2023/07/02 05:49:58;;;;;;;6.80;2.00;;;;;;;17.94;100.00;100010.16;5013977;28;21025;-72
2023/07/02 05:52:24;;;;;;;8.13;2.40;;;;;;;18.13;100.00;100008.13;5014240;28;20526;-73
2023/07/02 05:54:52;;;;;;;6.60;2.20;;;;;;;18.17;98.46;100013.69;5014255;28;20444;-73
2023/07/02 05:57:19;;;;;;;11.50;2.33;;;;;;;18.22;95.32;100010.63;5014212;28;20535;-72
2023/07/02 05:59:45;;;;;;;8.23;1.90;;;;;;;18.34;94.75;100010.44;5014049;28;20549;-72
2023/07/02 06:02:12;;;;;;;8.00;2.20;;;;;;;18.33;92.06;100006.13;5013840;28;21052;-72
2023/07/02 06:04:38;;;;;;;6.90;2.03;;;;;;;18.35;93.22;100008.47;5013754;28;21042;-72
2023/07/02 06:07:05;;;;;;;10.03;2.50;;;;;;;18.41;93.27;100007.00;5012802;28;20935;-73
2023/07/02 06:09:32;;;;;;;8.27;2.30;;;;;;;18.38;96.44;100013.25;5013632;28;20926;-72
2023/07/02 06:12:00;;;;;;;5.90;1.67;;;;;;;18.34;94.51;100012.38;5014047;28;20539;-72
2023/07/02 06:14:27;;;;;;;6.60;2.10;;;;;;;18.31;91.77;100013.13;5013967;28;20475;-73
2023/07/02 06:16:57;;;;;;;5.80;1.37;;;;;;;18.31;92.86;100010.38;5013640;28;20444;-72
2023/07/02 06:19:23;;;;;;;7.83;2.37;;;;;;;18.40;91.47;100022.66;5013850;28;20522;-73
2023/07/02 06:21:50;;;;;;;6.27;1.87;;;;;;;18.47;89.19;100015.72;5013517;28;20452;-73
2023/07/02 06:24:16;;;;;;;8.67;1.80;;;;;;;18.49;89.90;100005.16;5013797;28;20543;-72
2023/07/02 06:26:43;;;;;;;6.13;2.07;;;;;;;18.51;87.90;100000.13;5013334;28;20764;-72
2023/07/02 06:29:11;;;;;;;6.63;1.93;;;;;;;18.52;88.86;99996.22;5013346;28;20487;-72
2023/07/02 06:31:38;;;;;;;6.90;1.97;;;;;;;18.55;87.49;99998.19;5013647;28;20479;-74
2023/07/02 06:34:04;;;;;;;5.90;1.80;;;;;;;18.47;87.12;100011.03;5013624;28;20534;-73
2023/07/02 06:36:31;;;;;;;8.20;1.60;;;;;;;18.51;89.67;100011.88;5013595;28;20900;-74
2023/07/02 06:38:57;;;;;;;10.17;2.30;;;;;;;18.60;87.65;100014.38;5013426;28;20490;-73
2023/07/02 06:41:24;;;;;;;6.17;1.60;;;;;;;18.63;88.85;100014.41;5013550;28;20452;-73
2023/07/02 06:43:50;;;;;;;5.97;1.50;;;;;;;18.78;86.83;100020.16;5013541;28;20491;-76
2023/07/02 06:46:19;;;;;;;7.20;1.97;;;;;;;18.90;86.50;100015.22;5013486;28;20958;-72
2023/07/02 06:48:45;;;;;;;6.70;2.00;;;;;;;19.04;87.15;100013.84;5013380;28;20534;-71
2023/07/02 06:51:14;;;;;;;6.60;1.93;;;;;;;19.16;85.45;100010.84;5013387;28;20530;-71
2023/07/02 06:53:41;;;;;;;6.13;1.90;;;;;;;19.23;85.60;100010.16;5013389;28;20510;-70
2023/07/02 06:56:09;;;;;;;8.07;2.13;;;;;;;19.23;83.70;100010.16;5013338;28;20456;-70
2023/07/02 06:58:35;;;;;;;6.07;1.80;;;;;;;19.29;82.08;100011.38;5013202;28;20484;-71
2023/07/02 07:01:02;;;;;;;11.60;1.77;;;;;;;19.32;82.26;100024.38;5013341;28;20452;-70
2023/07/02 07:03:30;;;;;;;5.80;1.73;;;;;;;19.41;82.61;100022.13;5013096;28;20444;-70
2023/07/02 07:05:56;;;;;;;5.53;1.73;;;;;;;19.49;79.49;100015.56;5012850;28;20880;-70
2023/07/02 07:08:23;;;;;;;6.43;1.67;;;;;;;19.51;80.07;100024.22;5013068;28;20460;-70
2023/07/02 07:10:51;;;;;;;5.70;1.93;;;;;;;19.50;81.96;100019.88;5012908;28;20483;-71
2023/07/02 07:13:17;;;;;;;6.30;1.93;;;;;;;19.50;78.98;100021.84;5013180;28;20534;-70
2023/07/02 07:15:44;;;;;;;7.50;2.33;;;;;;;19.42;81.02;100016.25;5013237;28;20534;-70
2023/07/02 07:18:10;;;;;;;7.50;1.70;;;;;;;19.34;81.04;100020.09;5014552;28;20491;-70
2023/07/02 07:20:39;;;;;;;5.80;1.90;;;;;;;19.27;81.52;100031.00;5017119;28;20448;-71
2023/07/02 07:23:07;;;;;;;10.27;2.03;;;;;;;19.41;81.03;100031.16;5016727;28;20934;-70
2023/07/02 07:25:33;;;;;;;6.13;2.00;;;;;;;19.49;82.47;100025.75;5017060;28;20440;-70
2023/07/02 07:28:00;;;;;;;8.17;2.13;;;;;;;19.66;82.06;100025.19;5016792;28;20436;-71
2023/07/02 07:30:27;;;;;;;5.20;1.53;;;;;;;19.73;81.00;100028.00;5016880;28;20466;-70
2023/07/02 07:32:54;;;;;;;7.00;2.27;;;;;;;19.88;79.11;100020.72;5016935;28;20448;-70
2023/07/02 07:35:22;;;;;;;5.93;1.50;;;;;;;19.86;79.07;100026.56;5016841;28;20462;-71
2023/07/02 07:37:51;;;;;;;14.00;2.40;;;;;;;19.62;79.51;100032.63;5016767;28;20454;-71
2023/07/02 07:40:17;;;;;;;5.50;1.37;;;;;;;19.63;79.09;100031.44;5016586;28;20574;-70
2023/07/02 07:42:44;;;;;;;6.40;1.60;;;;;;;19.54;78.09;100028.16;5016454;28;20450;-71
2023/07/02 07:45:11;;;;;;;6.63;2.40;;;;;;;19.45;78.76;100033.16;5016397;28;20447;-70
2023/07/02 07:47:38;;;;;;;19.83;2.13;;;;;;;19.39;81.09;100039.00;5016688;28;20447;-70
2023/07/02 07:50:09;;;;;;;5.87;1.73;;;;;;;19.34;80.89;100050.28;5016559;28;20452;-70
2023/07/02 07:52:36;;;;;;;6.03;1.70;;;;;;;19.20;81.04;100052.06;5016635;28;20554;-71
2023/07/02 07:55:05;;;;;;;6.03;2.07;;;;;;;19.23;82.84;100052.13;5016544;28;20539;-70
2023/07/02 07:57:32;;;;;;;6.23;1.80;;;;;;;19.22;82.24;100053.28;5016166;28;20943;-71
2023/07/02 07:59:58;;;;;;;5.00;1.50;;;;;;;19.22;82.16;100060.75;5016347;28;20570;-70
2023/07/02 08:02:25;;;;;;;5.90;1.53;;;;;;;19.20;81.45;100055.59;5016053;28;20527;-70
2023/07/02 08:04:51;;;;;;;5.50;1.63;;;;;;;19.25;82.31;100058.03;5016391;28;20454;-71
2023/07/02 08:07:18;;;;;;;6.87;2.03;;;;;;;19.24;82.69;100069.38;5015957;28;20439;-75
2023/07/02 08:09:44;;;;;;;5.07;1.40;;;;;;;19.14;84.69;100060.63;5018372;28;20921;-74
2023/07/02 08:12:12;;;;;;;9.50;1.87;;;;;;;19.20;84.26;100069.34;5017437;28;20451;-75
2023/07/02 08:14:39;;;;;;;10.50;2.17;;;;;;;19.22;82.48;100067.03;5016168;28;20494;-73
2023/07/02 08:17:06;;;;;;;6.30;2.00;;;;;;;19.15;80.45;100056.72;5015684;28;20490;-73
2023/07/02 08:19:32;;;;;;;7.10;2.20;;;;;;;19.09;80.73;100057.44;5015963;28;20586;-73
2023/07/02 08:21:59;;;;;;;6.77;2.40;;;;;;;19.14;79.77;100059.84;5015914;28;20486;-73
2023/07/02 08:24:25;;;;;;;6.77;2.17;;;;;;;19.20;80.70;100063.06;5015796;28;20468;-73
2023/07/02 08:26:52;;;;;;;6.23;2.27;;;;;;;19.27;80.97;100063.16;5015852;28;20443;-72
2023/07/02 08:29:20;;;;;;;6.70;2.33;;;;;;;19.19;82.98;100067.75;5014280;28;20506;-73
2023/07/02 08:31:47;;;;;;;5.73;1.97;;;;;;;19.30;80.19;100060.47;5015814;28;20523;-73
2023/07/02 08:34:13;;;;;;;7.83;2.30;;;;;;;19.34;80.03;100069.53;5015651;28;20502;-73
2023/07/02 08:36:40;;;;;;;6.80;2.27;;;;;;;19.33;79.00;100072.66;5015581;28;20878;-72
2023/07/02 08:39:06;;;;;;;8.30;2.27;;;;;;;19.32;78.19;100077.34;5015297;28;20488;-74
2023/07/02 08:41:43;;;;;;;6.20;1.90;;;;;;;19.31;78.68;100081.28;5015383;28;20494;-75
2023/07/02 08:44:11;;;;;;;7.57;1.97;;;;;;;19.34;77.30;100082.47;5015231;28;20907;-74
2023/07/02 08:46:40;;;;;;;6.20;2.00;;;;;;;19.34;77.21;100072.25;5015227;28;20959;-74
2023/07/02 08:49:07;;;;;;;6.00;2.30;;;;;;;19.31;75.47;100075.00;5015385;28;20462;-73
2023/07/02 08:51:34;;;;;;;9.90;2.20;;;;;;;19.46;76.10;100070.47;5015345;28;20484;-73
2023/07/02 08:54:00;;;;;;;7.97;2.67;;;;;;;19.59;75.26;100080.81;5015397;28;20535;-73
2023/07/02 08:56:27;;;;;;;5.40;1.70;;;;;;;19.69;73.29;100079.41;5015012;28;20995;-73
2023/07/02 08:58:54;;;;;;;7.77;2.47;;;;;;;19.90;73.13;100087.88;5014888;28;20860;-73
2023/07/02 09:01:21;;;;;;;8.90;2.57;;;;;;;19.93;69.92;100086.34;5014894;28;20443;-74
2023/07/02 09:03:50;;;;;;;5.70;1.47;;;;;;;20.05;68.97;100090.78;5015025;28;20500;-73
2023/07/02 09:06:19;;;;;;;9.20;2.60;;;;;;;20.10;71.38;100094.00;5015010;28;20436;-73
2023/07/02 09:08:46;;;;;;;9.73;2.97;;;;;;;20.09;72.92;100100.66;5014925;28;20538;-73
2023/07/02 09:11:14;;;;;;;8.20;2.70;;;;;;;20.23;69.09;100101.94;5014937;28;20448;-73
2023/07/02 09:13:46;;;;;;;5.43;1.43;;;;;;;20.24;67.79;100096.09;5014573;28;20452;-73
2023/07/02 09:16:23;;;;;;;7.63;2.33;;;;;;;20.24;66.89;100092.56;5014515;28;20444;-73
2023/07/02 09:19:02;;;;;;;11.13;2.50;;;;;;;20.16;69.19;100097.19;5014636;28;20487;-74
2023/07/02 09:21:38;;;;;;;12.30;3.20;;;;;;;20.17;67.77;100093.25;5014620;28;20907;-73
2023/07/02 09:24:13;;;;;;;6.83;2.37;;;;;;;20.24;69.27;100092.56;5014637;28;20902;-74
2023/07/02 09:26:43;;;;;;;6.70;2.17;;;;;;;20.31;68.31;100098.91;5014856;28;20511;-73
2023/07/02 09:29:10;;;;;;;8.47;2.67;;;;;;;20.46;65.72;100096.28;5014357;28;20482;-73
2023/07/02 09:31:44;;;;;;;6.77;2.07;;;;;;;20.52;67.31;100105.81;5014477;28;20959;-73
2023/07/02 09:34:13;;;;;;;9.07;2.77;;;;;;;20.62;66.95;100102.34;5014398;28;20459;-73
2023/07/02 09:36:40;;;;;;;9.37;2.40;;;;;;;20.81;65.72;100104.06;5014648;28;20450;-73
2023/07/02 09:39:08;;;;;;;7.30;2.37;;;;;;;20.86;63.92;100096.25;5014447;28;20479;-73
2023/07/02 09:41:35;;;;;;;6.60;2.00;;;;;;;20.93;62.62;100092.72;5014236;28;20471;-73
2023/07/02 09:44:03;;;;;;;13.00;3.10;;;;;;;21.06;63.39;100094.00;5014174;28;20535;-73
2023/07/02 09:46:31;;;;;;;6.47;2.07;;;;;;;21.15;62.67;100096.41;5014078;28;20884;-73
2023/07/02 09:49:00;;;;;;;8.43;2.83;;;;;;;21.28;64.27;100088.63;5013947;28;20513;-73
2023/07/02 09:51:28;;;;;;;12.30;3.17;;;;;;;21.31;62.53;100080.41;5013979;28;21022;-73
2023/07/02 09:53:55;;;;;;;9.83;2.90;;;;;;;21.14;61.58;100092.09;5014331;28;20527;-73
2023/07/02 09:56:22;;;;;;;9.30;3.13;;;;;;;21.04;62.12;100079.06;5014259;28;20447;-73
2023/07/02 09:58:49;;;;;;;8.97;2.77;;;;;;;21.07;63.85;100081.84;5014146;28;20503;-73
2023/07/02 10:01:15;;;;;;;8.93;2.50;;;;;;;21.08;63.77;100082.63;5014209;28;20543;-74
2023/07/02 10:03:42;;;;;;;9.57;3.13;;;;;;;21.19;62.20;100083.44;5014257;28;20479;-75
2023/07/02 10:06:08;;;;;;;11.57;3.07;;;;;;;21.20;60.11;100071.25;5014082;28;20444;-74
2023/07/02 10:08:37;;;;;;;7.07;2.50;;;;;;;21.12;61.70;100075.94;5014083;28;20460;-74
2023/07/02 10:11:11;;;;;;;8.00;2.60;;;;;;;21.31;62.20;100083.16;5013752;28;21038;-73
2023/07/02 10:13:38;;;;;;;7.03;2.70;;;;;;;21.38;59.74;100085.97;5014023;28;20475;-74
2023/07/02 10:16:06;;;;;;;9.90;2.40;;;;;;;21.23;60.58;100080.72;5014310;28;20939;-74
2023/07/02 10:18:34;;;;;;;11.67;3.07;;;;;;;21.19;63.56;100079.91;5013779;28;20491;-74
2023/07/02 10:21:01;;;;;;;10.73;3.10;;;;;;;21.37;62.87;100070.59;5013927;28;20557;-74
2023/07/02 10:23:34;;;;;;;10.50;2.73;;;;;;;21.52;62.16;100073.41;5013786;28;20456;-74
2023/07/02 10:26:14;;;;;;;7.93;2.63;;;;;;;21.69;61.52;100086.44;5013797;28;20476;-74
2023/07/02 10:28:41;;;;;;;11.87;2.87;;;;;;;21.81;57.80;100094.38;5013566;28;20499;-74
2023/07/02 10:31:18;;;;;;;8.53;2.73;;;;;;;21.63;58.13;100082.50;5013697;28;20479;-74
2023/07/02 10:33:45;;;;;;;9.70;2.90;;;;;;;21.77;58.66;100087.28;5013575;28;20904;-74
2023/07/02 10:36:20;;;;;;;14.23;2.70;;;;;;;21.45;58.61;100087.16;5013682;28;20518;-73
2023/07/02 10:38:46;;;;;;;8.00;2.43;;;;;;;21.34;60.96;100093.41;5013652;28;20818;-74
2023/07/02 10:41:25;;;;;;;7.70;2.40;;;;;;;21.21;59.25;100089.38;5013707;28;20863;-74
2023/07/02 10:43:51;;;;;;;12.03;2.63;;;;;;;21.12;58.01;100100.75;5013651;28;20436;-74
2023/07/02 10:46:21;;;;;;;8.53;3.13;;;;;;;20.99;59.29;100106.97;5013531;28;20987;-74
2023/07/02 10:48:55;;;;;;;7.93;2.40;;;;;;;20.82;58.77;100117.44;5013416;28;20492;-73
2023/07/02 10:51:23;;;;;;;9.60;2.67;;;;;;;20.60;58.55;100108.22;5013198;28;20447;-72
2023/07/02 10:53:59;;;;;;;8.30;3.10;;;;;;;20.59;60.23;100108.63;5012560;28;21029;-73
2023/07/02 10:56:28;;;;;;;9.77;2.43;;;;;;;20.95;58.20;100112.44;5013481;28;20424;-72
2023/07/02 10:58:55;;;;;;;7.50;2.63;;;;;;;21.13;57.55;100107.81;5013360;28;20464;-72
2023/07/02 11:01:26;;;;;;;9.77;3.03;;;;;;;21.10;58.26;100116.84;5013272;28;20479;-72
2023/07/02 11:04:04;;;;;;;7.73;3.17;;;;;;;21.05;58.90;100103.44;5013378;28;20479;-73
2023/07/02 11:06:33;;;;;;;9.33;2.90;;;;;;;21.14;60.57;100105.84;5013342;28;20448;-73
2023/07/02 11:09:01;;;;;;;7.77;2.50;;;;;;;21.41;58.13;100109.19;5012892;28;20467;-72
2023/07/02 11:11:29;;;;;;;11.27;3.07;;;;;;;21.62;57.14;100105.75;5013333;28;20527;-73
2023/07/02 11:13:56;;;;;;;12.03;2.80;;;;;;;21.82;55.95;100118.00;5012994;28;20475;-73
2023/07/02 11:16:25;;;;;;;13.40;4.13;;;;;;;21.93;54.22;100096.00;5013056;28;20483;-73
2023/07/02 11:18:53;;;;;;;8.13;3.27;;;;;;;22.05;52.39;100114.94;5013109;28;20522;-73
2023/07/02 11:21:20;;;;;;;7.23;2.60;;;;;;;22.39;51.40;100117.38;5013034;28;20487;-73
2023/07/02 11:23:46;;;;;;;8.20;2.70;;;;;;;22.78;49.56;100106.34;5013232;28;20448;-73
2023/07/02 11:26:13;;;;;;;7.60;2.50;;;;;;;22.90;47.55;100103.22;5012779;28;20498;-72